Tonopah Airport
KTPH : rendu visible

Aérodrome :











RETROUVEZ-NOUS SUR...

 
LOGIN :

S'inscrire | Disclaimer

   EN    FR    IT 

 









Légende :    VFR   VFR Marginal   IFR   IFR Intensif   IFR Très Intensif
Visi : 
Plafond : 
>= 8 km
>= 3000ft
5 à 8 km
1000 à 3000 ft
1500m à 5 km
500 à 1000 ft
800 à 1500m
200 à 500 ft
< 800m
< 200 ft
Symboles :   Orages  Brouillard  Fortes neiges  Fortes précipitations  Vent > 20 kt






- Altitude de l'aérodrome : 5430 ft


KTPH - Tonopah

DERNIER METAR :
  • 050056Z AUTO 19020G26KT 10SM BKN100 14/M07 A2967 RMK AO2 PK WND 17030/0018 SLP029 T01391072

METARs EXPIRÉS :
  • 042356Z AUTO 20020G28KT 10SM FEW110 17/M07 A2966 RMK AO2 PK WND 20029/2322 SLP021 T01671072 10178 20100 56020
  • 042256Z AUTO 19016G30KT 10SM CLR 17/M07 A2967 RMK AO2 PK WND 20030/2248 SLP021 T01671072

TAF KTPH
Valide du 05 à 00h jusqu'au 06 à 00h UTC


042320Z 0500/0524 18012G22KT P6SM SCT080 BKN120
FM050200 VRB06KT P6SM BKN060
FM051800 18016G26KT P6SM BKN050
FM052100 19022G35KT P6SM BKN050



MET'MAP, la Météo Aéronautique d'un coup d'oeil ! - Copyright ORBIFLY Décembre 2007 - Disclaimer

ORBIFLY MET'MAP TEAM :

Programmation & Développement : Alexandra Zaïnal
Sur une idée originale de : Baudouin d'Aumeries
Assistance à la programmation : Marc-Olivier Méhu
Soutien technique & logistique : Manuel Goepfert

Contact : metmap@orbifly.com




SOURCES & CREDITS :

   NOAA       Earth
Advisory